GRVA4: Fourche LaFave River Nr Gravelly, Ark

Data processed at Mon Sep 24 2018 22:02


All information presented herein is the property of the government of the United States of America and may be revised or deleted at any time without prior notice.
Dissemination of this information without the expressed written consent of the Public Affairs Office, Tulsa District U.S. Army Corps of Engineers is strictly prohibited.
These data are gathered electronically and, as presented, have not undergone any form of quality control. These data are not guaranteed to be valid or correct.
Go to home page.
Go to station list.
Go to home page.

Downstream station:


Previous Day
Next Day
Current Day
    
SHEF ID:       GRVA4     Fourche LaFave River Near Gravel
STATION TYPE:  

               PRECIP     STAGE  RIV-FLOW  BAT-LOAD
                   in        ft       cfs      volt
              Ccp-Rev   Ccp-Rev   Ccp-Rev   Ccp-Rev
(US/Central)
09/24 00:00      0.00      1.71        86     13.00
09/24 01:00      0.01      1.75        93     13.00
09/24 02:00      0.01      1.77        97     12.95
09/24 03:00      0.00      1.79       100     12.95
09/24 04:00      0.03      1.82       106     12.89
09/24 05:00      0.01      1.84       109     12.89
09/24 06:00      0.25      1.88       117     12.89
09/24 07:00      0.03      1.89       119     12.89
09/24 08:00      0.00      1.89       119     12.89
09/24 09:00      0.00      1.90       121     12.95
09/24 10:00      0.00      1.90       121     13.07
09/24 11:00      0.04      1.90       121     13.30
09/24 12:00      0.00      1.91       123     13.48
09/24 13:00      0.01      1.91       123     13.53
09/24 14:00      0.00      1.92       125     13.53
09/24 15:00      0.00      1.93       127     13.59
09/24 16:00      0.00      1.94       129     13.59
09/24 17:00      0.00      1.95       131     13.53
09/24 18:00      0.00      1.96       133     13.30
09/24 19:00      0.00      1.97       135     13.24
09/24 20:00      0.00      1.99       139     13.12
09/24 21:00      0.00      2.00       141     13.12
09/24 22:00      ----      ----      ----      ----
09/24 23:00      ----      ----      ----      ----